Time;durP1;ratioP1;P1;durP2;ratioP2;P2;SDS_P1;SDS_P2;PMS_P1;PMS_P2;Temp;Humidity;BMP_temperature;BMP_pressure;BME280_temperature;BME280_humidity;BME280_pressure;Samples;Min_cycle;Max_cycle;Signal;HPM_P1;HPM_P2
2021/04/12 00:00:08;;;;;;;22.90;12.57;;;;;;;12.28;55.31;99010.70;256865;1119;115342;-76
2021/04/12 00:06:00;;;;;;;20.88;11.98;;;;;;;12.15;55.05;99016.02;255195;1119;115106;-74
2021/04/12 00:11:35;;;;;;;20.78;12.63;;;;;;;12.02;56.00;99008.03;258032;1118;114893;-75
2021/04/12 00:17:01;;;;;;;21.55;13.05;;;;;;;11.88;55.97;99008.09;258191;1119;115308;-70
2021/04/12 00:22:32;;;;;;;19.80;12.03;;;;;;;11.76;55.82;99007.09;258136;1119;115218;-74
2021/04/12 00:27:35;;;;;;;20.93;12.30;;;;;;;11.67;56.35;99009.52;258334;1118;115040;-75
2021/04/12 00:33:06;;;;;;;26.25;14.25;;;;;;;11.61;56.34;99000.96;257997;1119;115155;-74
2021/04/12 00:38:18;;;;;;;24.93;12.77;;;;;;;11.61;57.02;98990.30;257996;1118;115038;-73
2021/04/12 00:43:39;;;;;;;21.63;12.23;;;;;;;11.68;57.13;98987.23;258274;1118;115171;-74
2021/04/12 00:49:20;;;;;;;21.70;12.93;;;;;;;11.73;56.79;98991.30;258133;1119;115145;-73
2021/04/12 00:54:44;;;;;;;28.18;14.48;;;;;;;11.73;56.90;98987.78;257535;1119;115177;-73
2021/04/12 01:00:14;;;;;;;24.50;13.95;;;;;;;11.75;57.28;98983.19;257715;1118;115361;-76
2021/04/12 01:05:32;;;;;;;21.63;12.93;;;;;;;11.69;57.03;98984.48;258292;1118;115326;-76
2021/04/12 01:10:56;;;;;;;20.35;12.95;;;;;;;11.62;56.77;98977.85;257986;1119;114937;-74
2021/04/12 01:16:20;;;;;;;19.90;12.00;;;;;;;11.53;56.57;98981.98;254843;1119;115218;-72
2021/04/12 01:22:21;;;;;;;16.43;11.30;;;;;;;11.47;56.71;98978.86;253579;1119;115617;-74
2021/04/12 01:28:01;;;;;;;17.05;10.78;;;;;;;11.41;56.31;98969.45;258346;1119;115122;-72
2021/04/12 01:33:19;;;;;;;17.18;10.65;;;;;;;11.31;57.01;98974.57;258255;1119;115135;-73
2021/04/12 01:38:42;;;;;;;16.75;10.60;;;;;;;11.21;56.19;98975.25;257102;1119;116641;-75
2021/04/12 01:44:11;;;;;;;14.65;9.10;;;;;;;11.14;56.39;98980.16;257874;1120;114966;-73
2021/04/12 01:49:55;;;;;;;16.48;9.80;;;;;;;11.06;56.61;98980.63;258067;1118;114913;-73
2021/04/12 01:55:17;;;;;;;17.28;10.93;;;;;;;10.99;56.71;98981.98;258161;1119;115093;-72
2021/04/12 02:00:40;;;;;;;18.70;10.70;;;;;;;10.94;57.05;98962.80;258172;1118;115187;-74
2021/04/12 02:06:07;;;;;;;16.78;10.80;;;;;;;10.84;56.69;98962.54;258294;1118;115800;-75
2021/04/12 02:11:24;;;;;;;17.93;11.30;;;;;;;10.75;57.06;98968.44;253926;1120;116734;-73
2021/04/12 02:17:04;;;;;;;15.28;10.95;;;;;;;10.66;57.33;98966.36;257177;1119;115267;-73
2021/04/12 02:22:50;;;;;;;18.33;11.13;;;;;;;10.53;57.15;98966.30;258138;1120;115053;-73
2021/04/12 02:28:20;;;;;;;20.80;12.30;;;;;;;10.45;57.57;98963.25;258317;1118;115719;-72
2021/04/12 02:33:46;;;;;;;22.07;12.27;;;;;;;10.37;57.92;98955.76;252540;1120;115508;-73
2021/04/12 02:39:04;;;;;;;23.30;12.60;;;;;;;10.26;57.84;98957.36;254254;1119;115194;-74
2021/04/12 02:44:34;;;;;;;17.30;11.10;;;;;;;10.21;58.32;98949.64;253443;1119;115554;-75
2021/04/12 02:49:52;;;;;;;26.90;13.00;;;;;;;10.17;58.16;98948.98;258079;1119;115281;-74
2021/04/12 02:55:32;;;;;;;18.70;12.20;;;;;;;10.16;58.46;98949.09;254950;1119;115381;-75
2021/04/12 03:01:05;;;;;;;28.73;13.37;;;;;;;10.14;58.23;98945.66;252581;1119;115355;-75
2021/04/12 03:06:39;;;;;;;21.37;12.67;;;;;;;10.07;58.49;98942.52;254736;1119;115042;-74
2021/04/12 03:12:20;;;;;;;21.58;12.90;;;;;;;10.01;58.85;98948.20;257864;1118;115154;-72
2021/04/12 03:17:41;;;;;;;16.98;10.98;;;;;;;9.97;58.67;98943.19;257491;1119;115269;-72
2021/04/12 03:23:03;;;;;;;17.10;10.40;;;;;;;9.95;58.68;98956.55;256821;1118;115369;-74
2021/04/12 03:28:20;;;;;;;15.78;9.45;;;;;;;9.94;58.89;98946.88;255505;1119;115286;-73
2021/04/12 03:33:37;;;;;;;13.93;9.75;;;;;;;9.93;58.83;98943.37;256211;1119;114824;-72
2021/04/12 03:38:49;;;;;;;16.43;9.85;;;;;;;9.88;58.82;98950.78;254795;1119;114979;-71
2021/04/12 03:44:30;;;;;;;15.13;9.93;;;;;;;9.83;59.04;98952.00;258331;1118;114787;-73
2021/04/12 03:50:11;;;;;;;19.10;9.17;;;;;;;9.75;58.97;98951.59;254159;1119;114654;-73
2021/04/12 03:55:20;;;;;;;16.33;9.55;;;;;;;9.66;58.72;98945.89;257961;1118;115029;-74
2021/04/12 04:00:25;;;;;;;18.53;9.68;;;;;;;9.61;59.05;98950.64;258305;1119;114880;-72
2021/04/12 04:05:42;;;;;;;19.65;9.53;;;;;;;9.61;58.92;98940.01;255628;1120;114500;-72
2021/04/12 04:10:45;;;;;;;15.83;9.25;;;;;;;9.62;59.03;98947.02;257407;1118;115048;-73
2021/04/12 04:16:02;;;;;;;17.38;9.58;;;;;;;9.65;59.22;98940.68;257178;1119;115124;-76
2021/04/12 04:21:37;;;;;;;20.68;9.78;;;;;;;9.69;59.14;98940.39;258346;1118;115050;-74
2021/04/12 04:27:17;;;;;;;21.40;10.13;;;;;;;9.69;59.47;98940.39;257104;1119;114683;-78
2021/04/12 04:32:45;;;;;;;17.60;10.10;;;;;;;9.70;59.65;98944.75;258083;1118;114956;-74
2021/04/12 04:38:04;;;;;;;21.15;9.30;;;;;;;9.71;59.50;98945.59;258206;1118;115185;-75
2021/04/12 04:43:56;;;;;;;16.73;10.15;;;;;;;9.75;59.42;98952.47;258268;1119;114952;-71
2021/04/12 04:49:21;;;;;;;14.98;10.05;;;;;;;9.77;59.09;98952.36;258352;1119;115021;-72
2021/04/12 04:55:01;;;;;;;20.70;9.90;;;;;;;9.77;59.29;98962.99;258231;1119;116140;-73
2021/04/12 05:00:40;;;;;;;14.15;9.60;;;;;;;9.76;59.48;98967.45;257054;1119;115296;-75
2021/04/12 05:06:20;;;;;;;18.08;10.35;;;;;;;9.81;59.18;98969.83;257916;1119;115084;-75
2021/04/12 05:11:49;;;;;;;18.23;10.30;;;;;;;9.93;59.90;98967.30;257044;1119;114955;-75
2021/04/12 05:17:13;;;;;;;16.15;10.30;;;;;;;10.07;59.67;98968.27;257549;1119;114931;-74
2021/04/12 05:22:22;;;;;;;19.98;10.55;;;;;;;10.22;59.59;98969.96;258347;1119;115118;-74
2021/04/12 05:27:39;;;;;;;24.65;13.10;;;;;;;10.33;59.76;98964.89;256355;1119;115090;-74
2021/04/12 05:33:00;;;;;;;30.00;13.43;;;;;;;10.48;59.67;98975.52;254521;1119;115130;-74
2021/04/12 05:38:25;;;;;;;27.98;13.45;;;;;;;10.66;59.80;98966.36;256728;1118;115217;-77
2021/04/12 05:43:39;;;;;;;20.08;11.20;;;;;;;10.88;60.01;98972.03;255136;1119;114907;-72
2021/04/12 05:49:19;;;;;;;21.08;9.75;;;;;;;11.09;59.46;98959.13;257790;1120;115219;-73
2021/04/12 05:54:40;;;;;;;14.57;9.33;;;;;;;11.26;59.44;98957.17;253088;1119;115188;-79
2021/04/12 05:59:51;;;;;;;19.68;10.13;;;;;;;11.39;58.98;98944.74;258318;1119;114867;-75
2021/04/12 06:05:19;;;;;;;18.95;10.03;;;;;;;11.54;59.13;98964.17;258139;1118;116174;-75
2021/04/12 06:10:51;;;;;;;18.70;9.60;;;;;;;11.70;58.76;98958.66;257923;1117;114878;-74
2021/04/12 06:16:20;;;;;;;20.37;9.80;;;;;;;11.89;58.82;98963.61;255374;1119;114723;-75
2021/04/12 06:21:42;;;;;;;15.50;8.65;;;;;;;12.08;58.42;98959.57;257943;1119;114972;-76
2021/04/12 06:27:22;;;;;;;16.53;8.78;;;;;;;12.30;58.19;98952.75;258033;1118;114830;-74
2021/04/12 06:32:56;;;;;;;15.90;8.00;;;;;;;12.51;58.04;98951.22;258376;1119;114940;-74
2021/04/12 06:38:35;;;;;;;23.23;7.90;;;;;;;12.66;57.88;98949.26;257619;1118;115235;-75
2021/04/12 06:44:15;;;;;;;13.15;6.98;;;;;;;12.82;58.01;98962.37;257285;1119;115347;-76
2021/04/12 06:49:39;;;;;;;16.55;8.40;;;;;;;13.06;57.59;98966.89;258324;1119;114955;-75
2021/04/12 06:55:11;;;;;;;20.00;8.58;;;;;;;13.21;57.51;98965.74;258379;1119;114718;-71
2021/04/12 07:00:50;;;;;;;23.13;9.40;;;;;;;13.35;57.60;98968.30;258012;1120;115276;-74
2021/04/12 07:06:43;;;;;;;16.45;8.70;;;;;;;13.48;57.05;98974.44;258101;1119;114973;-73
2021/04/12 07:11:57;;;;;;;21.35;8.80;;;;;;;13.59;57.34;98973.63;257811;1119;114837;-73
2021/04/12 07:17:19;;;;;;;18.73;8.38;;;;;;;13.69;57.25;98976.46;257690;1119;115848;-73
2021/04/12 07:22:59;;;;;;;14.35;8.13;;;;;;;13.75;56.77;98975.97;258258;1119;114937;-73
2021/04/12 07:28:40;;;;;;;17.25;7.60;;;;;;;13.81;56.97;98983.53;258149;1118;115352;-73
2021/04/12 07:33:59;;;;;;;21.15;8.38;;;;;;;13.87;56.74;98982.22;258189;1119;115097;-73
2021/04/12 07:39:43;;;;;;;21.18;9.00;;;;;;;13.93;56.62;98984.44;258269;1119;115804;-74
2021/04/12 07:45:18;;;;;;;19.35;8.68;;;;;;;13.99;56.80;98989.29;258263;1119;114941;-75
2021/04/12 07:50:24;;;;;;;11.90;6.90;;;;;;;14.03;56.06;98990.78;258331;1119;114896;-75
2021/04/12 07:56:05;;;;;;;16.20;7.67;;;;;;;14.06;56.07;98985.20;258329;1119;114710;-76
2021/04/12 08:01:39;;;;;;;13.65;7.13;;;;;;;14.08;56.16;98987.74;257925;1120;115584;-74
2021/04/12 08:07:13;;;;;;;17.37;6.73;;;;;;;14.13;56.73;98978.39;258025;1119;114999;-74
2021/04/12 08:12:36;;;;;;;11.08;6.80;;;;;;;14.24;56.57;98966.00;258185;1118;115005;-76
2021/04/12 08:18:13;;;;;;;18.73;7.73;;;;;;;14.38;56.96;98971.11;258291;1118;114462;-76
2021/04/12 08:24:02;;;;;;;12.43;6.20;;;;;;;14.60;56.38;98962.25;257614;1119;115175;-75
2021/04/12 08:29:42;;;;;;;12.05;6.65;;;;;;;14.83;56.61;98966.61;257809;1119;114868;-71
2021/04/12 08:35:36;;;;;;;14.43;6.20;;;;;;;14.98;56.39;98975.27;258192;1117;115083;-71
2021/04/12 08:41:03;;;;;;;12.00;6.23;;;;;;;15.17;55.75;98974.59;257945;1119;115553;-74
2021/04/12 08:46:43;;;;;;;14.37;6.10;;;;;;;15.34;55.57;98978.57;257997;1119;117155;-74
2021/04/12 08:52:31;;;;;;;8.63;4.80;;;;;;;15.43;54.94;98976.97;257987;1119;115127;-72
2021/04/12 08:57:34;;;;;;;13.13;6.23;;;;;;;15.52;54.69;98982.42;257649;1118;115583;-73
2021/04/12 09:03:12;;;;;;;11.73;6.15;;;;;;;15.56;54.71;98986.55;257943;1118;115175;-71
2021/04/12 09:08:40;;;;;;;9.95;5.60;;;;;;;15.61;54.36;98970.91;257986;1118;114780;-73
2021/04/12 09:14:19;;;;;;;12.40;5.63;;;;;;;15.71;54.45;98971.02;257865;1119;114653;-73
2021/04/12 09:19:50;;;;;;;13.23;4.45;;;;;;;15.95;54.06;98976.13;257942;1118;114784;-76
2021/04/12 09:25:44;;;;;;;12.00;4.83;;;;;;;16.03;53.33;98965.61;257753;1118;114945;-74
2021/04/12 09:31:11;;;;;;;14.90;4.60;;;;;;;16.13;52.85;98965.64;257610;1119;115717;-75
2021/04/12 09:36:29;;;;;;;10.23;4.63;;;;;;;16.20;52.41;98969.53;257975;1119;114981;-73
2021/04/12 09:47:40;;;;;;;12.28;6.60;;;;;;;16.30;51.98;98962.38;258218;1119;114675;-73
2021/04/12 09:53:11;;;;;;;11.33;5.23;;;;;;;16.30;51.74;98964.19;258127;1120;114918;-73
2021/04/12 09:58:54;;;;;;;7.78;4.45;;;;;;;16.28;51.62;98966.17;258251;1119;116039;-72
2021/04/12 10:03:57;;;;;;;8.35;4.40;;;;;;;16.24;51.37;98965.59;258068;1118;115936;-73
2021/04/12 10:09:19;;;;;;;13.33;5.15;;;;;;;16.20;51.14;98971.34;257921;1118;114865;-75
2021/04/12 10:14:27;;;;;;;9.65;4.65;;;;;;;16.19;50.77;98970.48;257640;1118;115802;-74
2021/04/12 10:19:54;;;;;;;10.58;4.10;;;;;;;16.19;50.80;98981.23;257591;1118;115201;-74
2021/04/12 10:25:02;;;;;;;8.53;3.40;;;;;;;16.14;50.28;98988.84;257665;1118;115668;-72
2021/04/12 10:30:11;;;;;;;6.50;3.43;;;;;;;16.14;50.07;98991.53;257611;1117;114863;-74
2021/04/12 10:35:32;;;;;;;8.78;3.43;;;;;;;16.12;49.85;98989.95;258195;1117;114779;-74
2021/04/12 10:40:48;;;;;;;6.38;2.98;;;;;;;16.08;49.29;98982.16;258276;1119;115036;-72
2021/04/12 10:46:30;;;;;;;7.90;3.08;;;;;;;16.06;49.25;98985.95;258306;1119;114576;-73
2021/04/12 10:52:11;;;;;;;7.83;2.80;;;;;;;16.07;48.99;98987.67;258070;1118;114280;-72
2021/04/12 10:57:40;;;;;;;7.53;2.83;;;;;;;16.09;48.69;98980.32;258132;1119;114564;-71
2021/04/12 11:03:13;;;;;;;6.68;3.10;;;;;;;16.16;48.84;98978.81;258325;1118;114709;-71
2021/04/12 11:08:37;;;;;;;7.18;2.85;;;;;;;16.21;48.58;98979.28;258169;1118;115934;-74
2021/04/12 11:14:01;;;;;;;8.57;3.20;;;;;;;16.25;48.37;98977.18;257871;1120;114731;-73
2021/04/12 11:23:01;;;;;;;7.28;3.05;;;;;;;16.29;48.02;98983.98;258012;1114;102943;-73
2021/04/12 11:28:35;;;;;;;6.80;3.38;;;;;;;16.33;48.17;98985.41;258558;1116;114405;-70
2021/04/12 11:33:48;;;;;;;5.65;3.10;;;;;;;16.37;48.24;98981.50;258691;1116;113972;-74
2021/04/12 11:39:08;;;;;;;5.70;3.13;;;;;;;16.47;48.11;98989.58;258669;1115;114452;-74
2021/04/12 11:44:59;;;;;;;9.15;3.08;;;;;;;16.57;48.41;98990.48;258625;1116;114080;-72
2021/04/12 11:50:22;;;;;;;6.68;3.05;;;;;;;16.74;47.96;98983.63;258561;1116;113949;-72
2021/04/12 11:55:42;;;;;;;7.10;3.10;;;;;;;16.96;47.48;98983.45;258646;1116;114102;-71
2021/04/12 12:01:00;;;;;;;6.53;2.73;;;;;;;17.08;47.15;98989.56;258582;1115;114602;-71
2021/04/12 12:06:31;;;;;;;8.00;3.25;;;;;;;17.19;47.36;98994.84;258714;1116;114012;-71
2021/04/12 12:12:08;;;;;;;7.80;3.08;;;;;;;17.33;47.00;98985.53;258460;1116;113812;-72
2021/04/12 12:17:19;;;;;;;15.58;3.80;;;;;;;17.48;46.95;98984.11;258493;1116;114354;-74
2021/04/12 12:23:10;;;;;;;8.03;3.33;;;;;;;17.56;46.46;98985.25;258497;1116;114537;-71
2021/04/12 12:28:41;;;;;;;5.03;2.70;;;;;;;17.70;46.22;98983.00;258478;1115;114258;-75
2021/04/12 12:33:55;;;;;;;7.70;2.88;;;;;;;17.70;45.72;98984.85;258447;1116;114104;-71
2021/04/12 12:39:16;;;;;;;8.90;3.35;;;;;;;17.71;45.64;98979.31;258528;1116;114433;-70
2021/04/12 12:44:30;;;;;;;11.78;3.80;;;;;;;17.97;46.12;98978.77;258453;1116;113909;-71
2021/04/12 12:49:44;;;;;;;8.80;3.80;;;;;;;18.53;45.29;98971.69;258515;1116;114727;-74
2021/04/12 12:54:50;;;;;;;6.10;3.35;;;;;;;19.03;45.20;98968.66;258428;1115;114278;-71
2021/04/12 13:00:15;;;;;;;7.30;3.63;;;;;;;19.43;44.95;98970.08;258441;1116;114980;-72
2021/04/12 13:05:32;;;;;;;8.73;3.80;;;;;;;19.91;44.94;98961.63;258452;1116;114593;-72
2021/04/12 13:10:49;;;;;;;6.95;3.80;;;;;;;20.29;44.51;98957.67;258538;1116;114508;-75
2021/04/12 13:16:08;;;;;;;12.80;6.60;;;;;;;20.07;43.55;98974.39;255910;1116;114285;-73
2021/04/12 13:21:27;;;;;;;11.78;5.30;;;;;;;19.74;43.14;98968.75;258450;1116;114690;-71
2021/04/12 13:26:48;;;;;;;22.40;11.17;;;;;;;19.46;43.82;98972.47;255407;1116;118389;-75
2021/04/12 13:31:59;;;;;;;19.63;13.20;;;;;;;19.21;43.72;98980.32;256827;1116;114676;-75
2021/04/12 13:37:25;;;;;;;10.43;6.03;;;;;;;19.04;43.88;98979.28;258467;1116;114543;-71
2021/04/12 13:42:47;;;;;;;11.93;6.83;;;;;;;18.88;44.06;98977.22;258475;1116;115612;-71
2021/04/12 13:47:55;;;;;;;11.50;4.90;;;;;;;18.79;44.39;98982.69;258049;1116;114495;-70
2021/04/12 13:53:14;;;;;;;11.15;6.13;;;;;;;18.77;43.91;98990.91;258388;1116;114440;-76
2021/04/12 13:58:35;;;;;;;11.58;5.58;;;;;;;18.71;44.27;98979.84;258451;1116;114645;-70
2021/04/12 14:04:07;;;;;;;8.85;5.23;;;;;;;18.69;44.19;98988.08;258458;1116;114770;-77
2021/04/12 14:09:52;;;;;;;9.25;4.20;;;;;;;18.61;44.04;98987.95;258462;1116;114553;-73
2021/04/12 14:15:08;;;;;;;9.50;5.03;;;;;;;18.44;44.12;98984.18;258368;1116;113978;-75
2021/04/12 14:20:31;;;;;;;7.70;5.15;;;;;;;18.39;44.24;98981.09;258347;1116;114265;-71
2021/04/12 14:25:43;;;;;;;9.28;4.58;;;;;;;18.41;44.08;98984.50;258394;1116;113878;-69
2021/04/12 14:31:50;;;;;;;8.97;4.17;;;;;;;18.38;44.12;98990.18;258366;1116;114566;-71
2021/04/12 14:37:04;;;;;;;6.80;3.78;;;;;;;18.31;43.88;99006.08;258347;1116;114367;-72
2021/04/12 14:42:18;;;;;;;6.53;3.45;;;;;;;18.22;43.63;99000.70;258126;1116;114761;-76
2021/04/12 14:47:29;;;;;;;12.03;4.15;;;;;;;18.18;43.83;99000.14;256835;1116;114584;-76
2021/04/12 14:52:52;;;;;;;10.78;3.45;;;;;;;18.19;44.33;98991.91;258416;1116;114755;-70
2021/04/12 14:58:34;;;;;;;10.18;4.53;;;;;;;18.20;43.97;98985.52;258395;1116;114551;-70
2021/04/12 15:04:03;;;;;;;12.38;3.63;;;;;;;18.23;44.07;99002.39;254879;1116;114774;-70
2021/04/12 15:09:36;;;;;;;7.43;5.18;;;;;;;18.18;43.76;99000.98;258376;1116;114430;-71
2021/04/12 15:14:44;;;;;;;9.75;4.70;;;;;;;18.10;43.93;99011.61;258383;1116;114943;-74
2021/04/12 15:20:01;;;;;;;9.98;5.98;;;;;;;18.02;43.95;99022.27;258397;1116;113888;-71
2021/04/12 15:25:33;;;;;;;15.50;7.78;;;;;;;17.97;44.21;99016.47;258423;1116;113839;-71
2021/04/12 15:30:57;;;;;;;16.03;8.60;;;;;;;17.90;44.29;99023.39;258351;1116;114763;-77
2021/04/12 15:36:37;;;;;;;20.50;12.95;;;;;;;17.84;45.13;99030.22;255417;1116;114577;-75
2021/04/12 15:41:43;;;;;;;19.03;12.47;;;;;;;17.71;45.07;99041.22;256958;1116;114279;-76
2021/04/12 15:46:50;;;;;;;22.00;14.53;;;;;;;17.62;45.36;99044.74;257419;1116;115022;-74
2021/04/12 15:52:07;;;;;;;28.53;15.48;;;;;;;17.55;45.49;99040.06;258393;1116;114438;-71
2021/04/12 15:57:17;;;;;;;23.98;16.23;;;;;;;17.43;46.08;99055.50;258366;1116;115009;-71
2021/04/12 16:02:36;;;;;;;27.78;17.93;;;;;;;17.35;46.18;99063.39;258363;1115;114615;-71
2021/04/12 16:07:49;;;;;;;35.18;21.85;;;;;;;17.19;46.27;99080.91;258370;1115;114769;-72
2021/04/12 16:13:17;;;;;;;43.08;29.05;;;;;;;17.09;46.97;99088.09;258427;1115;115535;-70
2021/04/12 16:18:48;;;;;;;39.70;28.85;;;;;;;16.95;46.77;99101.87;258267;1116;114661;-69
2021/04/12 16:23:55;;;;;;;35.65;24.30;;;;;;;16.74;47.78;99105.44;258475;1116;114438;-72
2021/04/12 16:29:07;;;;;;;27.08;19.58;;;;;;;16.60;47.57;99116.50;258322;1116;114907;-71
2021/04/12 16:34:27;;;;;;;27.38;18.50;;;;;;;16.48;48.06;99136.37;258451;1115;115006;-72
2021/04/12 16:39:40;;;;;;;30.00;17.45;;;;;;;16.23;48.17;99141.09;258407;1115;114815;-72
2021/04/12 16:44:53;;;;;;;25.50;17.85;;;;;;;15.98;48.07;99152.19;258481;1115;114665;-69
2021/04/12 16:50:09;;;;;;;25.38;17.08;;;;;;;15.68;48.42;99150.19;258404;1115;114357;-74
2021/04/12 16:55:25;;;;;;;23.48;17.83;;;;;;;15.42;48.33;99163.85;258378;1116;114807;-69
2021/04/12 17:00:38;;;;;;;27.50;17.85;;;;;;;15.13;48.85;99171.52;258362;1116;114664;-70
2021/04/12 17:05:48;;;;;;;25.10;17.60;;;;;;;14.89;49.00;99176.97;258335;1116;115313;-69
2021/04/12 17:10:59;;;;;;;27.13;18.78;;;;;;;14.62;49.60;99196.87;258556;1116;114471;-74
2021/04/12 17:16:18;;;;;;;25.38;18.98;;;;;;;14.29;49.57;99207.41;258472;1116;114251;-71
2021/04/12 17:21:34;;;;;;;32.13;20.75;;;;;;;14.05;50.26;99223.47;258497;1116;115552;-74
2021/04/12 17:27:03;;;;;;;32.53;22.18;;;;;;;13.78;50.64;99226.33;256834;1116;114443;-76
2021/04/12 17:32:11;;;;;;;30.73;22.30;;;;;;;13.54;50.74;99245.84;258547;1116;114752;-70
2021/04/12 17:37:21;;;;;;;39.08;25.10;;;;;;;13.31;50.74;99257.29;258521;1116;114836;-74
2021/04/12 17:42:35;;;;;;;42.93;28.45;;;;;;;13.14;51.36;99269.11;258577;1116;114933;-70
2021/04/12 17:47:42;;;;;;;46.50;26.55;;;;;;;12.95;51.65;99265.05;258566;1116;114597;-71
2021/04/12 17:52:47;;;;;;;48.48;29.25;;;;;;;12.77;51.55;99267.16;258127;1116;117117;-68
2021/04/12 17:57:49;;;;;;;44.95;30.15;;;;;;;12.61;52.14;99276.30;258490;1116;114917;-75
2021/04/12 18:03:02;;;;;;;49.85;32.43;;;;;;;12.57;52.79;99298.78;256590;1116;115348;-75
2021/04/12 18:08:26;;;;;;;50.50;31.65;;;;;;;12.47;52.14;99298.56;256945;1116;115238;-75
2021/04/12 18:13:34;;;;;;;52.55;32.73;;;;;;;12.30;52.65;99305.00;258382;1116;114879;-68
2021/04/12 18:18:48;;;;;;;60.68;35.23;;;;;;;12.22;53.45;99317.97;258374;1116;114716;-68
2021/04/12 18:24:02;;;;;;;52.30;33.53;;;;;;;12.10;52.74;99319.63;258335;1116;114579;-73
2021/04/12 18:29:19;;;;;;;58.08;33.63;;;;;;;11.89;52.71;99324.51;258504;1116;114589;-75
2021/04/12 18:34:29;;;;;;;48.33;30.00;;;;;;;11.84;53.81;99338.11;258430;1116;114734;-74
2021/04/12 18:39:47;;;;;;;47.18;30.20;;;;;;;11.77;53.42;99355.41;258391;1115;114631;-69
2021/04/12 18:44:51;;;;;;;40.00;27.15;;;;;;;11.70;54.01;99347.89;258524;1116;116986;-69
2021/04/12 18:49:59;;;;;;;44.30;28.25;;;;;;;11.59;53.50;99362.74;258360;1115;114706;-70
2021/04/12 18:55:15;;;;;;;41.23;28.63;;;;;;;11.48;53.77;99365.21;258443;1116;114862;-74
2021/04/12 19:00:22;;;;;;;37.75;24.23;;;;;;;11.41;53.75;99379.83;258282;1116;114779;-75
2021/04/12 19:06:09;;;;;;;42.95;28.25;;;;;;;11.29;53.71;99392.09;254585;1116;114901;-74
2021/04/12 19:11:18;;;;;;;40.15;28.00;;;;;;;11.11;54.29;99382.53;258417;1116;115816;-74
2021/04/12 19:16:39;;;;;;;42.38;26.90;;;;;;;11.01;54.61;99392.01;258406;1115;114799;-74
2021/04/12 19:21:46;;;;;;;37.73;26.53;;;;;;;10.90;54.22;99397.92;258375;1115;114666;-75
2021/04/12 19:26:54;;;;;;;31.60;23.37;;;;;;;10.76;54.91;99412.03;258336;1115;114713;-75
2021/04/12 19:32:21;;;;;;;34.10;22.73;;;;;;;10.69;54.70;99420.45;258449;1115;114820;-69
2021/04/12 19:37:45;;;;;;;29.13;20.38;;;;;;;10.60;55.19;99433.34;258490;1116;114869;-74
2021/04/12 19:43:05;;;;;;;27.20;18.78;;;;;;;10.52;55.65;99427.58;258438;1115;114287;-70
2021/04/12 19:48:42;;;;;;;30.70;20.58;;;;;;;10.48;55.64;99420.71;258555;1116;114616;-75
2021/04/12 19:54:03;;;;;;;28.93;19.50;;;;;;;10.42;55.48;99429.88;258341;1115;114723;-70
2021/04/12 19:59:24;;;;;;;27.83;18.70;;;;;;;10.32;55.52;99436.65;258500;1116;114789;-69
2021/04/12 20:04:33;;;;;;;27.68;19.33;;;;;;;10.15;55.71;99434.88;258424;1114;114942;-69
2021/04/12 20:09:47;;;;;;;29.95;18.63;;;;;;;10.07;56.10;99450.39;258377;1116;114917;-69
2021/04/12 20:15:03;;;;;;;25.33;17.98;;;;;;;9.94;55.99;99431.56;258375;1116;114810;-70
2021/04/12 20:20:20;;;;;;;23.98;17.20;;;;;;;9.90;56.13;99434.48;258420;1116;115213;-70
2021/04/12 20:25:28;;;;;;;27.03;18.83;;;;;;;9.88;56.44;99442.55;258481;1116;115687;-70
2021/04/12 20:30:46;;;;;;;26.75;19.08;;;;;;;9.90;56.58;99445.11;258479;1116;115076;-70
2021/04/12 20:36:19;;;;;;;32.20;23.05;;;;;;;9.89;56.45;99448.72;258432;1116;114835;-69
2021/04/12 20:41:47;;;;;;;39.13;24.93;;;;;;;9.87;56.47;99461.22;258425;1116;114894;-70
2021/04/12 20:47:31;;;;;;;36.48;24.55;;;;;;;9.77;56.30;99471.47;258358;1116;114912;-70
2021/04/12 20:52:41;;;;;;;40.28;25.35;;;;;;;9.73;56.30;99463.75;258435;1115;114765;-69
2021/04/12 20:57:58;;;;;;;35.23;24.57;;;;;;;9.68;56.54;99456.88;258401;1116;114595;-69
2021/04/12 21:03:26;;;;;;;30.85;21.03;;;;;;;9.62;56.72;99462.50;258326;1116;115464;-69
2021/04/12 21:08:34;;;;;;;33.77;23.27;;;;;;;9.58;57.01;99466.27;256732;1116;114806;-75
2021/04/12 21:13:40;;;;;;;44.48;28.35;;;;;;;9.56;56.63;99462.81;256682;1116;114273;-69
2021/04/12 21:18:44;;;;;;;44.95;26.95;;;;;;;9.49;56.61;99477.34;258553;1116;114821;-75
2021/04/12 21:23:56;;;;;;;40.88;26.30;;;;;;;9.48;57.02;99479.14;258488;1115;114513;-76
2021/04/12 21:29:04;;;;;;;37.00;24.43;;;;;;;9.45;56.89;99483.76;258476;1116;114642;-69
2021/04/12 21:34:21;;;;;;;42.73;25.58;;;;;;;9.43;57.15;99482.96;258491;1115;114660;-69
2021/04/12 21:39:29;;;;;;;34.60;21.63;;;;;;;9.40;57.01;99491.08;258400;1115;114875;-74
2021/04/12 21:44:43;;;;;;;40.88;23.60;;;;;;;9.22;56.81;99491.06;258414;1116;114640;-76
2021/04/12 21:49:58;;;;;;;36.48;21.65;;;;;;;9.17;57.29;99502.83;258389;1114;116459;-69
2021/04/12 21:55:24;;;;;;;34.53;20.78;;;;;;;9.14;57.30;99506.52;258330;1116;114951;-69
2021/04/12 22:00:38;;;;;;;36.08;21.77;;;;;;;9.13;57.59;99514.55;258481;1116;114970;-69
2021/04/12 22:06:01;;;;;;;36.35;21.40;;;;;;;9.08;57.23;99509.47;256623;1116;115131;-76
2021/04/12 22:11:05;;;;;;;37.83;23.55;;;;;;;8.90;57.59;99513.88;258444;1116;114992;-75
2021/04/12 22:16:33;;;;;;;33.48;20.45;;;;;;;8.83;57.96;99522.17;258493;1116;115016;-75
2021/04/12 22:22:09;;;;;;;31.30;19.43;;;;;;;8.69;57.92;99522.82;258318;1116;114877;-68
2021/04/12 22:27:25;;;;;;;28.85;18.65;;;;;;;8.58;57.83;99528.63;258496;1116;114729;-68
2021/04/12 22:32:46;;;;;;;33.70;21.25;;;;;;;8.46;58.83;99540.67;258327;1116;114311;-68
2021/04/12 22:43:37;;;;;;;25.40;16.75;;;;;;;8.34;59.24;99553.58;258422;1116;114179;-75
2021/04/12 22:48:54;;;;;;;21.03;14.13;;;;;;;8.32;59.08;99558.08;258364;1116;114355;-76
2021/04/12 22:54:19;;;;;;;23.35;15.98;;;;;;;8.29;58.50;99572.36;258414;1116;114571;-75
2021/04/12 22:59:49;;;;;;;24.20;15.58;;;;;;;8.24;59.21;99566.38;257817;1116;116148;-76
2021/04/12 23:04:53;;;;;;;18.93;13.85;;;;;;;8.09;58.56;99569.72;257298;1116;114817;-75
2021/04/12 23:10:00;;;;;;;20.13;13.55;;;;;;;7.98;59.40;99570.16;258458;1116;114630;-69
2021/04/12 23:15:08;;;;;;;23.10;15.08;;;;;;;7.87;59.00;99569.76;258384;1116;114979;-72
2021/04/12 23:20:12;;;;;;;19.13;12.47;;;;;;;7.82;59.29;99575.27;258441;1116;114391;-70
2021/04/12 23:25:23;;;;;;;20.65;13.83;;;;;;;7.73;59.36;99568.55;258371;1116;114885;-75
2021/04/12 23:30:37;;;;;;;15.73;10.63;;;;;;;7.61;60.04;99573.48;258502;1115;114331;-76
2021/04/12 23:35:40;;;;;;;17.08;10.98;;;;;;;7.52;59.30;99564.16;258456;1116;114150;-76
2021/04/12 23:40:55;;;;;;;16.13;10.28;;;;;;;7.51;60.13;99571.24;257089;1116;114743;-75
2021/04/12 23:46:03;;;;;;;;;;;;;;;7.46;59.27;99575.84;258440;1116;115215;-70
2021/04/12 23:51:35;;;;;;;15.10;10.73;;;;;;;7.37;59.29;99575.35;258469;1116;112888;-75
2021/04/12 23:56:48;;;;;;;13.33;9.15;;;;;;;7.30;60.17;99572.98;256663;1116;114575;-72
